Time;durP1;ratioP1;P1;durP2;ratioP2;P2;SDS_P1;SDS_P2;PMS_P1;PMS_P2;Temp;Humidity;BMP_temperature;BMP_pressure;BME280_temperature;BME280_humidity;BME280_pressure;Samples;Min_cycle;Max_cycle;Signal;HPM_P1;HPM_P2
2022/03/07 00:00:10;;;;;;;14.90;10.27;;;;;;;;;;5031225;28;20203;-46
2022/03/07 00:02:36;;;;;;;16.80;9.70;;;;;;;;;;5031112;28;20187;-46
2022/03/07 00:05:02;;;;;;;17.65;10.77;;;;;;;;;;5011396;28;20172;-46
2022/03/07 00:07:28;;;;;;;14.40;10.70;;;;;;;;;;5011639;28;20214;-46
2022/03/07 00:09:54;;;;;;;12.30;10.00;;;;;;;;;;5011117;28;20423;-47
2022/03/07 00:12:20;;;;;;;19.10;10.80;;;;;;;;;;5011294;28;20457;-47
2022/03/07 00:14:46;;;;;;;18.40;11.97;;;;;;;;;;5011499;28;20581;-47
2022/03/07 00:17:11;;;;;;;22.00;10.63;;;;;;;;;;5011782;28;20410;-49
2022/03/07 00:19:37;;;;;;;20.47;11.17;;;;;;;;;;5011227;28;20550;-46
2022/03/07 00:22:03;;;;;;;20.60;11.30;;;;;;;;;;5013084;28;20465;-46
2022/03/07 00:24:29;;;;;;;14.25;11.23;;;;;;;;;;5014868;28;20423;-46
2022/03/07 00:26:55;;;;;;;13.83;10.13;;;;;;;;;;5014569;28;20200;-46
2022/03/07 00:29:21;;;;;;;22.93;12.10;;;;;;;;;;5014875;28;20414;-48
2022/03/07 00:31:47;;;;;;;13.47;10.30;;;;;;;;;;5014674;28;20391;-49
2022/03/07 00:34:15;;;;;;;13.52;9.70;;;;;;;;;;5014683;28;20953;-48
2022/03/07 00:36:41;;;;;;;19.33;12.50;;;;;;;;;;5014643;28;20176;-50
2022/03/07 00:39:07;;;;;;;15.93;11.38;;;;;;;;;;5014461;28;20169;-49
2022/03/07 00:41:33;;;;;;;18.53;11.23;;;;;;;;;;5014212;28;20283;-49
2022/03/07 00:43:59;;;;;;;15.70;11.25;;;;;;;;;;5014470;28;20899;-50
2022/03/07 00:46:25;;;;;;;15.37;10.97;;;;;;;;;;5014550;28;20199;-50
2022/03/07 00:48:51;;;;;;;15.43;10.53;;;;;;;;;;5014362;28;20407;-48
2022/03/07 00:51:16;;;;;;;18.40;12.43;;;;;;;;;;5014004;28;20419;-48
2022/03/07 00:53:42;;;;;;;19.27;11.97;;;;;;;;;;5020113;28;20627;-49
2022/03/07 00:56:10;;;;;;;14.80;11.40;;;;;;;;;;5034054;28;20973;-49
2022/03/07 00:58:36;;;;;;;17.70;10.75;;;;;;;;;;5033964;28;20909;-49
2022/03/07 01:01:02;;;;;;;18.75;11.90;;;;;;;;;;5033708;28;20250;-49
2022/03/07 01:03:28;;;;;;;15.80;11.40;;;;;;;;;;5026799;28;20685;-47
2022/03/07 01:05:54;;;;;;;18.90;12.60;;;;;;;;;;5014006;28;20455;-50
2022/03/07 01:08:20;;;;;;;18.40;11.67;;;;;;;;;;5013964;28;20404;-50
2022/03/07 01:10:47;;;;;;;16.55;11.48;;;;;;;;;;5013719;28;20429;-50
2022/03/07 01:13:13;;;;;;;22.90;12.23;;;;;;;;;;5013912;28;20160;-49
2022/03/07 01:15:40;;;;;;;15.93;11.38;;;;;;;;;;5013886;28;20172;-48
2022/03/07 01:18:06;;;;;;;16.88;11.77;;;;;;;;;;5013795;28;20259;-51
2022/03/07 01:20:33;;;;;;;17.23;11.83;;;;;;;;;;5013538;28;20279;-50
2022/03/07 01:22:59;;;;;;;16.02;11.23;;;;;;;;;;5013596;28;20407;-48
2022/03/07 01:25:25;;;;;;;14.00;10.73;;;;;;;;;;5013603;28;20219;-49
2022/03/07 01:27:51;;;;;;;20.95;11.00;;;;;;;;;;5013694;28;20164;-49
2022/03/07 01:30:17;;;;;;;17.90;12.05;;;;;;;;;;5013508;28;20187;-50
2022/03/07 01:32:44;;;;;;;17.33;11.30;;;;;;;;;;5013152;28;20164;-49
2022/03/07 01:35:10;;;;;;;23.58;12.65;;;;;;;;;;5013578;28;20404;-50
2022/03/07 01:37:36;;;;;;;18.07;12.67;;;;;;;;;;5013379;28;20709;-49
2022/03/07 01:40:02;;;;;;;19.63;12.53;;;;;;;;;;5013068;28;21061;-49
2022/03/07 01:42:28;;;;;;;17.55;11.30;;;;;;;;;;5013418;28;20441;-50
2022/03/07 01:44:54;;;;;;;21.25;11.80;;;;;;;;;;5013372;28;20546;-50
2022/03/07 01:47:20;;;;;;;18.77;11.90;;;;;;;;;;5013220;28;20287;-50
2022/03/07 01:49:46;;;;;;;21.20;12.63;;;;;;;;;;5012945;28;20275;-48
2022/03/07 01:52:13;;;;;;;17.77;12.00;;;;;;;;;;5013044;28;20172;-49
2022/03/07 01:54:39;;;;;;;17.70;10.77;;;;;;;;;;5026803;28;20202;-49
2022/03/07 01:57:05;;;;;;;17.73;13.77;;;;;;;;;;5032890;28;20203;-49
2022/03/07 01:59:33;;;;;;;16.10;11.27;;;;;;;;;;5032560;28;20955;-48
2022/03/07 02:02:00;;;;;;;15.52;10.57;;;;;;;;;;5032089;28;20476;-48
2022/03/07 02:04:26;;;;;;;19.00;12.55;;;;;;;;;;5017353;28;20175;-50
2022/03/07 02:06:52;;;;;;;16.40;11.77;;;;;;;;;;5012088;28;20553;-49
2022/03/07 02:09:18;;;;;;;19.00;12.27;;;;;;;;;;5012908;28;20438;-48
2022/03/07 02:11:44;;;;;;;17.15;10.68;;;;;;;;;;5012683;28;20415;-48
2022/03/07 02:14:14;;;;;;;18.65;12.90;;;;;;;;;;5012801;28;20187;-48
2022/03/07 02:16:40;;;;;;;17.48;12.45;;;;;;;;;;5012672;28;20218;-48
2022/03/07 02:19:07;;;;;;;17.92;11.98;;;;;;;;;;5012696;28;20192;-48
2022/03/07 02:21:37;;;;;;;19.83;12.02;;;;;;;;;;5012442;28;20270;-47
2022/03/07 02:24:03;;;;;;;20.02;12.13;;;;;;;;;;5012571;28;20394;-50
2022/03/07 02:26:30;;;;;;;15.75;11.30;;;;;;;;;;5012590;28;20228;-48
2022/03/07 02:28:56;;;;;;;18.48;12.80;;;;;;;;;;5012586;28;20251;-48
2022/03/07 02:31:22;;;;;;;21.20;12.25;;;;;;;;;;5012183;28;20193;-48
2022/03/07 02:33:48;;;;;;;15.43;12.02;;;;;;;;;;5012525;28;20180;-48
2022/03/07 02:36:15;;;;;;;19.35;12.82;;;;;;;;;;5012509;28;20172;-49
2022/03/07 02:38:41;;;;;;;19.75;11.18;;;;;;;;;;5012801;28;20707;-49
2022/03/07 02:41:07;;;;;;;17.33;11.23;;;;;;;;;;5012152;28;20235;-48
2022/03/07 02:43:33;;;;;;;14.10;11.45;;;;;;;;;;5011883;28;20259;-48
2022/03/07 02:45:59;;;;;;;16.93;12.00;;;;;;;;;;5011888;28;20283;-49
2022/03/07 02:48:26;;;;;;;20.40;12.05;;;;;;;;;;5012300;28;20453;-48
2022/03/07 02:50:52;;;;;;;21.20;12.82;;;;;;;;;;5012040;28;20275;-48
2022/03/07 02:53:18;;;;;;;17.83;12.15;;;;;;;;;;5014787;28;20171;-48
2022/03/07 02:55:44;;;;;;;17.07;11.43;;;;;;;;;;5032038;28;20710;-48
2022/03/07 02:58:10;;;;;;;17.97;11.40;;;;;;;;;;5031894;28;20470;-48
2022/03/07 03:00:37;;;;;;;19.08;11.75;;;;;;;;;;5031537;28;20430;-48
2022/03/07 03:03:03;;;;;;;17.20;11.50;;;;;;;;;;5028139;28;20689;-49
2022/03/07 03:05:29;;;;;;;19.40;12.45;;;;;;;;;;5012046;28;20203;-49
2022/03/07 03:07:55;;;;;;;23.38;12.25;;;;;;;;;;5011986;28;20172;-48
2022/03/07 03:10:21;;;;;;;17.38;11.95;;;;;;;;;;5011795;28;20381;-49
2022/03/07 03:12:47;;;;;;;20.27;11.32;;;;;;;;;;5011915;28;20160;-49
2022/03/07 03:15:14;;;;;;;19.33;12.27;;;;;;;;;;5012004;28;20164;-50
2022/03/07 03:17:41;;;;;;;18.33;11.77;;;;;;;;;;5011999;28;20163;-48
2022/03/07 03:20:08;;;;;;;21.65;12.35;;;;;;;;;;5011647;28;20668;-49
2022/03/07 03:22:35;;;;;;;17.98;11.65;;;;;;;;;;5011842;28;20666;-48
2022/03/07 03:25:01;;;;;;;19.80;12.00;;;;;;;;;;5011847;28;20183;-49
2022/03/07 03:27:27;;;;;;;17.02;12.32;;;;;;;;;;5011779;28;20204;-49
2022/03/07 03:29:53;;;;;;;20.00;12.43;;;;;;;;;;5011485;28;20195;-48
2022/03/07 03:32:19;;;;;;;19.10;12.83;;;;;;;;;;5011784;28;20917;-49
2022/03/07 03:34:45;;;;;;;19.60;13.73;;;;;;;;;;5011856;28;20798;-50
2022/03/07 03:37:11;;;;;;;17.97;12.30;;;;;;;;;;5011753;28;20779;-50
2022/03/07 03:39:37;;;;;;;15.85;11.50;;;;;;;;;;5011926;28;20985;-50
2022/03/07 03:42:04;;;;;;;19.63;11.98;;;;;;;;;;5011631;28;20171;-50
2022/03/07 03:44:30;;;;;;;17.65;11.05;;;;;;;;;;5011770;28;20581;-47
2022/03/07 03:46:56;;;;;;;17.37;12.10;;;;;;;;;;5011638;28;20191;-50
2022/03/07 03:49:22;;;;;;;17.50;12.07;;;;;;;;;;5011480;28;20395;-48
2022/03/07 03:51:48;;;;;;;20.53;12.80;;;;;;;;;;5011516;28;20457;-49
2022/03/07 03:54:14;;;;;;;20.23;11.90;;;;;;;;;;5021792;28;20414;-49
2022/03/07 03:56:40;;;;;;;19.10;12.80;;;;;;;;;;5034171;28;20407;-49
2022/03/07 03:59:07;;;;;;;15.07;11.25;;;;;;;;;;5035036;28;20406;-48
2022/03/07 04:01:33;;;;;;;19.63;11.15;;;;;;;;;;5034850;28;20203;-49
2022/03/07 04:03:59;;;;;;;20.80;11.30;;;;;;;;;;5023692;28;20192;-50
2022/03/07 04:06:25;;;;;;;24.20;12.33;;;;;;;;;;5015066;28;20465;-48
2022/03/07 04:08:54;;;;;;;18.80;11.60;;;;;;;;;;5015639;28;20404;-48
2022/03/07 04:11:21;;;;;;;19.55;11.43;;;;;;;;;;5014713;28;20449;-50
2022/03/07 04:13:47;;;;;;;21.88;11.30;;;;;;;;;;5015238;28;20594;-50
2022/03/07 04:16:15;;;;;;;17.48;11.45;;;;;;;;;;5014998;28;20629;-49
2022/03/07 04:18:40;;;;;;;19.55;12.48;;;;;;;;;;5015001;28;20259;-49
2022/03/07 04:21:06;;;;;;;14.47;11.13;;;;;;;;;;5014653;28;20286;-50
2022/03/07 04:23:33;;;;;;;16.67;11.43;;;;;;;;;;5014856;28;20411;-51
2022/03/07 04:25:59;;;;;;;13.48;10.95;;;;;;;;;;5014678;28;20530;-49
2022/03/07 04:28:26;;;;;;;15.80;11.33;;;;;;;;;;5015092;28;20723;-49
2022/03/07 04:30:53;;;;;;;23.70;12.10;;;;;;;;;;5014497;28;20437;-47
2022/03/07 04:33:19;;;;;;;18.30;11.43;;;;;;;;;;5014627;28;20655;-48
2022/03/07 04:35:45;;;;;;;15.83;10.90;;;;;;;;;;5014698;28;20172;-48
2022/03/07 04:38:11;;;;;;;17.03;10.87;;;;;;;;;;5014605;28;20926;-50
2022/03/07 04:40:37;;;;;;;21.70;13.07;;;;;;;;;;5014236;28;20416;-49
2022/03/07 04:43:03;;;;;;;21.67;13.03;;;;;;;;;;5014461;28;20414;-50
2022/03/07 04:45:29;;;;;;;15.57;11.68;;;;;;;;;;5014388;28;20408;-49
2022/03/07 04:47:55;;;;;;;17.25;11.05;;;;;;;;;;5014432;28;20164;-48
2022/03/07 04:50:21;;;;;;;16.63;11.93;;;;;;;;;;5014185;28;20705;-49
2022/03/07 04:52:47;;;;;;;18.40;11.73;;;;;;;;;;5014297;28;20395;-48
2022/03/07 04:55:14;;;;;;;16.70;11.05;;;;;;;;;;5033230;28;20464;-50
2022/03/07 04:57:43;;;;;;;17.65;10.88;;;;;;;;;;5035768;28;20163;-49
2022/03/07 05:00:10;;;;;;;16.00;11.52;;;;;;;;;;5033710;28;20697;-50
2022/03/07 05:02:36;;;;;;;17.65;11.05;;;;;;;;;;5033787;28;20198;-50
2022/03/07 05:05:02;;;;;;;17.30;11.55;;;;;;;;;;4996363;28;20176;-49
2022/03/07 05:07:28;;;;;;;15.60;11.60;;;;;;;;;;5013240;28;20246;-48
2022/03/07 05:09:54;;;;;;;14.90;11.23;;;;;;;;;;5013690;28;20462;-48
2022/03/07 05:12:20;;;;;;;14.23;11.00;;;;;;;;;;5014049;28;20404;-49
2022/03/07 05:14:46;;;;;;;17.97;11.13;;;;;;;;;;5013907;28;20411;-50
2022/03/07 05:17:12;;;;;;;14.53;11.00;;;;;;;;;;5013981;28;20399;-50
2022/03/07 05:19:37;;;;;;;15.50;11.00;;;;;;;;;;5013624;28;20406;-49
2022/03/07 05:22:04;;;;;;;16.83;10.93;;;;;;;;;;5013173;28;20430;-49
2022/03/07 05:24:30;;;;;;;15.15;10.32;;;;;;;;;;5013694;28;20415;-48
2022/03/07 05:26:55;;;;;;;13.43;9.90;;;;;;;;;;5013105;28;20253;-49
2022/03/07 05:29:23;;;;;;;16.77;10.77;;;;;;;;;;5013434;28;20911;-47
2022/03/07 05:31:49;;;;;;;14.07;10.63;;;;;;;;;;5013315;28;20399;-49
2022/03/07 05:34:16;;;;;;;14.50;10.07;;;;;;;;;;5012956;28;20180;-48
2022/03/07 05:36:42;;;;;;;16.27;11.38;;;;;;;;;;5013234;28;20415;-49
2022/03/07 05:39:08;;;;;;;18.02;11.63;;;;;;;;;;5013005;28;20654;-50
2022/03/07 05:41:33;;;;;;;24.47;15.50;;;;;;;;;;5012743;28;20267;-49
2022/03/07 05:43:59;;;;;;;25.33;15.43;;;;;;;;;;5013219;28;20422;-49
2022/03/07 05:46:27;;;;;;;16.97;11.63;;;;;;;;;;5013269;28;20493;-48
2022/03/07 05:48:54;;;;;;;14.40;11.32;;;;;;;;;;5013272;28;20403;-48
2022/03/07 05:51:23;;;;;;;15.95;10.70;;;;;;;;;;5012940;28;20204;-48
2022/03/07 05:53:50;;;;;;;16.35;11.32;;;;;;;;;;5013258;28;20211;-49
2022/03/07 05:56:16;;;;;;;16.55;9.23;;;;;;;;;;5013090;28;20184;-49
2022/03/07 05:58:42;;;;;;;17.80;10.55;;;;;;;;;;5013047;28;20628;-48
2022/03/07 06:01:08;;;;;;;16.90;10.17;;;;;;;;;;5012868;28;20192;-49
2022/03/07 06:03:34;;;;;;;13.70;10.43;;;;;;;;;;5012911;28;20431;-49
2022/03/07 06:06:00;;;;;;;20.07;10.80;;;;;;;;;;5012830;28;20451;-48
2022/03/07 06:08:26;;;;;;;15.02;10.13;;;;;;;;;;5012966;28;20757;-49
2022/03/07 06:10:52;;;;;;;14.77;10.50;;;;;;;;;;5012809;28;20200;-50
2022/03/07 06:13:19;;;;;;;16.13;10.10;;;;;;;;;;5012775;28;20164;-49
2022/03/07 06:15:45;;;;;;;17.70;10.13;;;;;;;;;;5013263;28;20406;-49
2022/03/07 06:18:12;;;;;;;10.75;9.13;;;;;;;;;;5012454;28;20242;-49
2022/03/07 06:20:39;;;;;;;10.82;8.20;;;;;;;;;;5011879;28;20543;-49
2022/03/07 06:23:06;;;;;;;16.30;11.07;;;;;;;;;;5012680;28;20169;-50
2022/03/07 06:25:33;;;;;;;10.68;9.40;;;;;;;;;;5012614;28;20648;-49
2022/03/07 06:28:00;;;;;;;12.80;10.15;;;;;;;;;;5013226;28;20731;-47
2022/03/07 06:30:27;;;;;;;16.48;10.20;;;;;;;;;;5012345;28;20267;-47
2022/03/07 06:32:53;;;;;;;16.45;10.15;;;;;;;;;;5012412;28;20231;-49
2022/03/07 06:35:19;;;;;;;12.20;9.70;;;;;;;;;;5012786;28;20176;-46
2022/03/07 06:37:51;;;;;;;11.90;8.67;;;;;;;;;;5012436;28;20399;-48
2022/03/07 06:40:18;;;;;;;12.93;8.32;;;;;;;;;;5012189;28;20419;-47
2022/03/07 06:42:46;;;;;;;13.85;8.82;;;;;;;;;;5012286;28;20204;-48
2022/03/07 06:45:12;;;;;;;10.45;8.50;;;;;;;;;;5012447;28;20536;-46
2022/03/07 06:47:39;;;;;;;14.70;9.02;;;;;;;;;;5012174;28;20195;-47
2022/03/07 06:50:06;;;;;;;12.27;8.25;;;;;;;;;;5012113;28;20184;-47
2022/03/07 06:52:32;;;;;;;13.07;8.73;;;;;;;;;;5012221;28;20168;-47
2022/03/07 06:54:58;;;;;;;13.18;8.80;;;;;;;;;;5012290;28;20168;-47
2022/03/07 06:57:25;;;;;;;10.20;8.27;;;;;;;;;;5012230;28;20177;-47
2022/03/07 06:59:51;;;;;;;12.55;9.10;;;;;;;;;;5011903;28;20427;-47
2022/03/07 07:02:17;;;;;;;12.35;8.80;;;;;;;;;;4994355;28;20258;-47
2022/03/07 07:04:43;;;;;;;17.00;8.20;;;;;;;;;;5012186;28;20660;-48
2022/03/07 07:07:10;;;;;;;8.00;7.20;;;;;;;;;;5012002;28;20291;-48
2022/03/07 07:09:36;;;;;;;9.50;8.02;;;;;;;;;;5011425;28;20160;-47
2022/03/07 07:12:02;;;;;;;9.70;7.45;;;;;;;;;;5011388;28;20169;-48
2022/03/07 07:14:28;;;;;;;8.05;7.25;;;;;;;;;;4993908;28;20180;-47
2022/03/07 07:16:54;;;;;;;13.53;7.60;;;;;;;;;;5011317;28;20514;-47
2022/03/07 07:19:23;;;;;;;8.07;7.28;;;;;;;;;;5011523;28;20426;-47
2022/03/07 07:21:49;;;;;;;11.77;7.25;;;;;;;;;;5011272;28;20711;-48
2022/03/07 07:24:15;;;;;;;6.53;5.87;;;;;;;;;;5011383;28;20279;-47
2022/03/07 07:26:41;;;;;;;7.43;6.22;;;;;;;;;;4993795;28;20470;-47
2022/03/07 07:29:08;;;;;;;6.10;5.50;;;;;;;;;;5011168;28;20190;-47
2022/03/07 07:31:34;;;;;;;7.13;5.93;;;;;;;;;;5014201;28;20422;-47
2022/03/07 07:34:00;;;;;;;7.27;6.57;;;;;;;;;;5015182;28;20231;-47
2022/03/07 07:36:26;;;;;;;6.75;5.80;;;;;;;;;;4997650;28;20820;-47
2022/03/07 07:38:52;;;;;;;5.93;5.27;;;;;;;;;;5015141;28;20180;-47
2022/03/07 07:41:18;;;;;;;5.77;4.30;;;;;;;;;;5014919;28;20939;-47
2022/03/07 07:43:44;;;;;;;6.50;4.70;;;;;;;;;;5015336;28;20410;-48
2022/03/07 07:46:10;;;;;;;5.57;5.07;;;;;;;;;;5015464;28;20990;-48
2022/03/07 07:48:36;;;;;;;5.53;5.03;;;;;;;;;;4997818;28;20837;-49
2022/03/07 07:51:02;;;;;;;6.70;5.73;;;;;;;;;;5015385;28;20427;-50
2022/03/07 07:53:28;;;;;;;5.23;4.70;;;;;;;;;;5015552;28;20422;-47
2022/03/07 07:55:54;;;;;;;6.30;4.23;;;;;;;;;;5015409;28;20955;-47
2022/03/07 07:58:20;;;;;;;6.10;4.93;;;;;;;;;;5015385;28;20774;-47
2022/03/07 08:00:47;;;;;;;4.90;4.50;;;;;;;;;;5015278;28;20427;-48
2022/03/07 08:03:14;;;;;;;4.73;4.33;;;;;;;;;;5015250;28;20867;-48
2022/03/07 08:05:39;;;;;;;4.57;4.20;;;;;;;;;;5015143;28;20891;-48
2022/03/07 08:08:06;;;;;;;5.40;4.53;;;;;;;;;;5015306;28;20411;-49
2022/03/07 08:10:31;;;;;;;5.07;4.60;;;;;;;;;;4997279;28;20431;-48
2022/03/07 08:12:58;;;;;;;5.17;4.73;;;;;;;;;;5014998;28;20404;-47
2022/03/07 08:15:24;;;;;;;4.80;4.37;;;;;;;;;;5015121;28;20730;-48
2022/03/07 08:17:50;;;;;;;5.63;5.13;;;;;;;;;;5015103;28;20407;-49
2022/03/07 08:20:18;;;;;;;5.67;5.17;;;;;;;;;;5014804;28;20425;-47
2022/03/07 08:22:44;;;;;;;5.43;4.80;;;;;;;;;;5014914;28;20399;-47
2022/03/07 08:25:10;;;;;;;5.40;4.90;;;;;;;;;;5014917;28;20421;-48
2022/03/07 08:27:37;;;;;;;5.47;4.90;;;;;;;;;;5014688;28;20446;-47
2022/03/07 08:30:06;;;;;;;6.20;5.63;;;;;;;;;;5014679;28;20473;-47
2022/03/07 08:32:32;;;;;;;6.00;5.00;;;;;;;;;;5014725;28;20406;-48
2022/03/07 08:34:58;;;;;;;5.70;5.20;;;;;;;;;;5014845;28;20413;-48
2022/03/07 08:37:24;;;;;;;6.47;5.63;;;;;;;;;;5014718;28;20869;-48
2022/03/07 08:39:50;;;;;;;6.10;5.50;;;;;;;;;;5014434;28;20502;-47
2022/03/07 08:42:16;;;;;;;5.53;5.07;;;;;;;;;;5013448;28;20470;-47
2022/03/07 08:44:43;;;;;;;5.53;4.70;;;;;;;;;;5014505;28;20413;-48
2022/03/07 08:47:09;;;;;;;4.90;4.47;;;;;;;;;;5014469;28;20859;-49
2022/03/07 08:49:35;;;;;;;4.90;4.40;;;;;;;;;;5014489;28;20832;-47
2022/03/07 08:52:01;;;;;;;6.60;5.03;;;;;;;;;;5014375;28;20407;-47
2022/03/07 08:54:27;;;;;;;22.77;4.97;;;;;;;;;;5002111;28;20423;-48
2022/03/07 08:56:53;;;;;;;5.43;4.93;;;;;;;;;;5014197;28;20412;-47
2022/03/07 08:59:19;;;;;;;9.67;5.20;;;;;;;;;;5013974;28;20408;-47
2022/03/07 09:01:45;;;;;;;6.17;4.73;;;;;;;;;;5013897;28;20424;-47
2022/03/07 09:04:11;;;;;;;4.70;4.30;;;;;;;;;;5013959;28;20511;-48
2022/03/07 09:06:37;;;;;;;4.93;4.53;;;;;;;;;;5014006;28;20461;-48
2022/03/07 09:09:03;;;;;;;4.67;4.27;;;;;;;;;;5014024;28;20407;-49
2022/03/07 09:11:29;;;;;;;4.50;4.13;;;;;;;;;;5013582;28;20535;-49
2022/03/07 09:13:55;;;;;;;4.40;4.10;;;;;;;;;;5013870;28;20403;-47
2022/03/07 09:16:21;;;;;;;4.77;4.40;;;;;;;;;;5012610;28;20925;-47
2022/03/07 09:18:47;;;;;;;6.53;4.23;;;;;;;;;;5013850;28;20407;-47
2022/03/07 09:21:13;;;;;;;4.33;3.90;;;;;;;;;;5013534;28;20527;-48
2022/03/07 09:23:39;;;;;;;5.53;4.70;;;;;;;;;;5013631;28;20465;-48
2022/03/07 09:26:06;;;;;;;5.60;4.00;;;;;;;;;;5013793;28;20461;-47
2022/03/07 09:28:33;;;;;;;3.97;3.67;;;;;;;;;;5013709;28;20435;-47
2022/03/07 09:30:59;;;;;;;4.73;4.27;;;;;;;;;;5013328;28;20824;-48
2022/03/07 09:33:25;;;;;;;5.50;3.90;;;;;;;;;;5013506;28;20403;-48
2022/03/07 09:35:51;;;;;;;5.57;4.00;;;;;;;;;;5013588;28;20396;-49
2022/03/07 09:38:17;;;;;;;7.33;4.40;;;;;;;;;;5013459;28;20410;-48
2022/03/07 09:40:43;;;;;;;4.43;3.50;;;;;;;;;;5013122;28;20429;-49
2022/03/07 09:43:09;;;;;;;3.93;3.13;;;;;;;;;;5012102;28;20426;-49
2022/03/07 09:45:35;;;;;;;9.40;3.47;;;;;;;;;;5013310;28;20415;-49
2022/03/07 09:48:01;;;;;;;4.00;3.23;;;;;;;;;;5013438;28;20411;-48
2022/03/07 09:50:28;;;;;;;4.50;4.10;;;;;;;;;;5013265;28;20427;-48
2022/03/07 09:52:55;;;;;;;3.50;3.30;;;;;;;;;;5013171;28;20374;-48
2022/03/07 09:55:21;;;;;;;7.40;3.40;;;;;;;;;;5013382;28;20370;-48
2022/03/07 09:57:48;;;;;;;3.77;3.43;;;;;;;;;;5013335;28;20387;-48
2022/03/07 10:00:16;;;;;;;3.83;3.53;;;;;;;;;;5012716;28;20455;-47
2022/03/07 10:02:55;;;;;;;3.40;3.20;;;;;;;;;;5013120;28;20434;-49
2022/03/07 10:05:21;;;;;;;4.63;4.23;;;;;;;;;;5013078;28;20899;-48
2022/03/07 10:07:47;;;;;;;3.60;3.30;;;;;;;;;;5013041;28;20469;-48
2022/03/07 10:10:13;;;;;;;4.67;3.67;;;;;;;;;;5012791;28;20450;-49
2022/03/07 10:12:49;;;;;;;4.00;3.70;;;;;;;;;;5012897;28;20374;-48
2022/03/07 10:15:18;;;;;;;3.60;3.30;;;;;;;;;;5012945;28;20402;-48
2022/03/07 10:17:54;;;;;;;3.40;3.20;;;;;;;;;;5012949;28;20414;-48
2022/03/07 10:20:21;;;;;;;3.37;3.17;;;;;;;;;;5012653;28;20433;-49
2022/03/07 10:22:49;;;;;;;3.90;3.60;;;;;;;;;;5012839;28;20445;-50
2022/03/07 10:25:16;;;;;;;4.60;4.20;;;;;;;;;;5012931;28;20985;-53
2022/03/07 10:27:44;;;;;;;4.00;3.70;;;;;;;;;;5012642;28;20535;-51
2022/03/07 10:30:11;;;;;;;3.80;3.50;;;;;;;;;;5012445;28;20469;-50
2022/03/07 10:32:37;;;;;;;3.70;3.40;;;;;;;;;;5012609;28;20379;-50
2022/03/07 10:35:03;;;;;;;4.20;3.80;;;;;;;;;;5012763;28;20389;-50
2022/03/07 10:37:36;;;;;;;3.80;3.50;;;;;;;;;;5012861;28;20770;-50
2022/03/07 10:40:02;;;;;;;3.83;3.53;;;;;;;;;;5012340;28;20434;-50
2022/03/07 10:42:28;;;;;;;4.30;3.60;;;;;;;;;;5012563;28;20420;-51
2022/03/07 10:45:01;;;;;;;3.73;3.43;;;;;;;;;;5012600;28;20900;-50
2022/03/07 10:47:30;;;;;;;3.50;3.20;;;;;;;;;;5011270;28;20438;-50
2022/03/07 10:49:57;;;;;;;5.60;3.87;;;;;;;;;;5012085;28;20395;-51
2022/03/07 10:52:24;;;;;;;4.53;4.10;;;;;;;;;;5012143;28;20375;-50
2022/03/07 10:54:50;;;;;;;4.90;3.63;;;;;;;;;;5012297;28;20771;-51
2022/03/07 10:57:17;;;;;;;3.80;3.50;;;;;;;;;;5012352;28;20458;-51
2022/03/07 10:59:44;;;;;;;4.73;3.33;;;;;;;;;;5011837;28;20383;-50
2022/03/07 11:02:11;;;;;;;4.20;3.90;;;;;;;;;;5012363;28;20748;-51
2022/03/07 11:04:41;;;;;;;5.93;3.93;;;;;;;;;;5011910;28;20408;-51
2022/03/07 11:07:08;;;;;;;3.93;3.63;;;;;;;;;;4995029;28;20523;-51
2022/03/07 11:09:35;;;;;;;3.77;3.50;;;;;;;;;;5011883;28;20380;-50
2022/03/07 11:12:01;;;;;;;3.60;3.27;;;;;;;;;;5011948;28;20389;-50
2022/03/07 11:14:27;;;;;;;4.80;3.00;;;;;;;;;;5011949;28;20384;-50
2022/03/07 11:16:56;;;;;;;4.50;3.33;;;;;;;;;;5012381;28;20402;-52
2022/03/07 11:19:23;;;;;;;4.33;3.33;;;;;;;;;;5011928;28;20434;-51
2022/03/07 11:21:51;;;;;;;3.63;3.33;;;;;;;;;;5012105;28;20781;-50
2022/03/07 11:24:18;;;;;;;6.43;3.20;;;;;;;;;;5012563;28;20847;-51
2022/03/07 11:26:44;;;;;;;3.70;3.40;;;;;;;;;;5011631;28;20433;-52
2022/03/07 11:29:10;;;;;;;3.53;3.23;;;;;;;;;;5011904;28;20417;-50
2022/03/07 11:31:38;;;;;;;4.87;3.37;;;;;;;;;;5011402;28;20426;-49
2022/03/07 11:34:07;;;;;;;3.80;3.50;;;;;;;;;;5011073;28;20687;-51
2022/03/07 11:36:36;;;;;;;3.50;3.20;;;;;;;;;;5011883;28;20384;-51
2022/03/07 11:39:03;;;;;;;3.83;3.47;;;;;;;;;;5011953;28;20945;-50
2022/03/07 11:41:30;;;;;;;4.17;3.87;;;;;;;;;;5010564;28;20430;-50
2022/03/07 11:43:59;;;;;;;4.23;3.07;;;;;;;;;;5011758;28;20383;-51
2022/03/07 11:46:28;;;;;;;4.13;3.47;;;;;;;;;;5011811;28;20919;-51
2022/03/07 11:48:54;;;;;;;4.00;3.70;;;;;;;;;;5011680;28;20435;-52
2022/03/07 11:51:22;;;;;;;5.33;3.90;;;;;;;;;;5011379;28;20401;-51
2022/03/07 11:53:51;;;;;;;3.73;3.40;;;;;;;;;;5011772;28;20439;-51
2022/03/07 11:56:18;;;;;;;4.83;3.23;;;;;;;;;;5012032;28;20414;-51
2022/03/07 11:58:49;;;;;;;4.57;3.87;;;;;;;;;;5011853;28;20418;-51
2022/03/07 12:01:16;;;;;;;3.50;3.10;;;;;;;;;;5011536;28;20426;-51
2022/03/07 12:03:42;;;;;;;3.90;3.60;;;;;;;;;;5011769;28;20434;-51
2022/03/07 12:06:13;;;;;;;4.30;3.90;;;;;;;;;;5009457;28;20464;-51
2022/03/07 12:08:43;;;;;;;3.50;3.20;;;;;;;;;;5011804;28;20441;-51
2022/03/07 12:11:10;;;;;;;5.37;3.50;;;;;;;;;;5011506;28;20909;-52
2022/03/07 12:13:45;;;;;;;6.47;3.53;;;;;;;;;;5011774;28;20454;-51
2022/03/07 12:16:12;;;;;;;3.40;3.10;;;;;;;;;;5014864;28;20863;-51
2022/03/07 12:18:38;;;;;;;4.93;3.20;;;;;;;;;;5015249;28;20488;-50
2022/03/07 12:21:04;;;;;;;3.73;3.43;;;;;;;;;;5014843;28;20778;-51
2022/03/07 12:23:33;;;;;;;4.20;3.80;;;;;;;;;;5015096;28;20411;-50
2022/03/07 12:26:09;;;;;;;4.67;3.63;;;;;;;;;;5015505;28;20898;-51
2022/03/07 12:28:37;;;;;;;3.87;3.57;;;;;;;;;;5015638;28;20891;-51
2022/03/07 12:31:04;;;;;;;3.50;3.30;;;;;;;;;;5015629;28;20792;-48
2022/03/07 12:33:30;;;;;;;4.10;3.80;;;;;;;;;;5014823;28;20901;-50
2022/03/07 12:35:59;;;;;;;4.47;4.07;;;;;;;;;;5014864;28;20410;-48
2022/03/07 12:38:28;;;;;;;3.70;3.40;;;;;;;;;;5014717;28;20378;-48
2022/03/07 12:40:54;;;;;;;6.50;3.70;;;;;;;;;;5013733;28;20525;-48
2022/03/07 12:43:20;;;;;;;4.20;3.73;;;;;;;;;;5014706;28;20407;-51
2022/03/07 12:45:47;;;;;;;3.87;3.57;;;;;;;;;;5014472;28;20794;-48
2022/03/07 12:48:13;;;;;;;3.80;3.50;;;;;;;;;;5014620;28;20407;-51
2022/03/07 12:50:40;;;;;;;4.43;3.67;;;;;;;;;;5014140;28;20421;-50
2022/03/07 12:53:12;;;;;;;3.93;3.63;;;;;;;;;;5014317;28;20396;-50
2022/03/07 12:55:38;;;;;;;4.13;3.83;;;;;;;;;;5014819;28;20453;-51
2022/03/07 12:58:04;;;;;;;8.03;4.90;;;;;;;;;;5014723;28;20485;-48
2022/03/07 13:00:31;;;;;;;5.63;3.93;;;;;;;;;;5013793;28;20406;-48
2022/03/07 13:02:58;;;;;;;4.17;3.50;;;;;;;;;;5014304;28;20405;-48
2022/03/07 13:05:26;;;;;;;4.33;3.93;;;;;;;;;;5014157;28;20418;-48
2022/03/07 13:07:53;;;;;;;4.13;3.63;;;;;;;;;;5014271;28;20441;-47
2022/03/07 13:10:21;;;;;;;3.90;3.60;;;;;;;;;;5013928;28;20404;-51
2022/03/07 13:12:47;;;;;;;6.27;5.50;;;;;;;;;;5014073;28;20385;-48
2022/03/07 13:15:13;;;;;;;5.20;4.67;;;;;;;;;;5014117;28;20370;-48
2022/03/07 13:17:39;;;;;;;4.67;4.30;;;;;;;;;;5014116;28;20457;-48
2022/03/07 13:20:05;;;;;;;5.23;4.23;;;;;;;;;;5013682;28;20477;-48
2022/03/07 13:22:31;;;;;;;4.40;4.00;;;;;;;;;;5013761;28;20400;-49
2022/03/07 13:24:59;;;;;;;3.90;3.60;;;;;;;;;;5013916;28;20413;-48
2022/03/07 13:27:25;;;;;;;4.03;3.70;;;;;;;;;;5013676;28;21024;-50
2022/03/07 13:30:02;;;;;;;4.60;4.20;;;;;;;;;;5012988;28;20431;-48
2022/03/07 13:32:31;;;;;;;4.13;3.73;;;;;;;;;;5013825;28;20402;-47
2022/03/07 13:34:58;;;;;;;5.07;4.57;;;;;;;;;;5013671;28;20411;-48
2022/03/07 13:37:39;;;;;;;4.30;4.00;;;;;;;;;;5013680;28;20443;-48
2022/03/07 13:40:09;;;;;;;5.13;4.73;;;;;;;;;;4995819;28;20422;-47
2022/03/07 13:42:46;;;;;;;4.53;4.13;;;;;;;;;;5013614;28;20462;-47
2022/03/07 13:45:13;;;;;;;5.13;4.73;;;;;;;;;;5014192;28;20884;-50
2022/03/07 13:47:40;;;;;;;5.57;4.40;;;;;;;;;;5013423;28;20470;-48
2022/03/07 13:50:08;;;;;;;4.60;4.20;;;;;;;;;;5013109;28;20431;-49
2022/03/07 13:52:38;;;;;;;4.27;3.97;;;;;;;;;;5011572;28;20423;-49
2022/03/07 13:55:06;;;;;;;5.00;4.50;;;;;;;;;;5013401;28;20396;-49
2022/03/07 13:57:53;;;;;;;5.87;3.73;;;;;;;;;;5013316;28;20908;-49
2022/03/07 14:00:24;;;;;;;6.00;3.60;;;;;;;;;;5012926;28;20493;-49
2022/03/07 14:02:54;;;;;;;6.93;3.70;;;;;;;;;;5012865;28;20429;-51
2022/03/07 14:05:20;;;;;;;4.43;3.70;;;;;;;;;;5013034;28;20419;-51
2022/03/07 14:07:53;;;;;;;4.90;4.50;;;;;;;;;;5012424;28;20436;-50
2022/03/07 14:10:20;;;;;;;4.20;3.70;;;;;;;;;;5012333;28;20426;-51
2022/03/07 14:12:51;;;;;;;4.37;3.43;;;;;;;;;;5012384;28;20777;-50
2022/03/07 14:15:23;;;;;;;4.27;3.90;;;;;;;;;;5012535;28;20407;-53
2022/03/07 14:17:55;;;;;;;5.00;3.80;;;;;;;;;;5012442;28;20757;-51
2022/03/07 14:20:21;;;;;;;4.60;4.20;;;;;;;;;;5012035;28;20463;-51
2022/03/07 14:22:48;;;;;;;3.80;3.50;;;;;;;;;;5012715;28;20438;-50
2022/03/07 14:25:15;;;;;;;3.40;3.20;;;;;;;;;;5012829;28;20399;-48
2022/03/07 14:27:41;;;;;;;4.90;3.90;;;;;;;;;;5012758;28;20461;-49